PILOTS ONLINE: 189    ATC ONLINE: 18

KFOE

Forbes Field

Location

IATA FOE
City Topeka
Country  United States
Latitude 38° 57' 3" N
Longitude 95° 39' 48" W
Elevation 1078 ft
Type Medium Airport

Map

Weather

METAR
2014/09/03 03:53
KFOE 030353Z AUTO 12005KT 10SM FEW002 22/19 A2997 RMK AO2 SLP139 T02170194
TAF
2014/09/02 18:21
TAF KFOE 021720Z 0218/0318 VRB03KT P6SM FEW015 
     FM022100 10005KT P6SM FEW035 
     FM030900 15006KT P6SM VCTS SCT015 BKN070CB 
     FM031300 18014KT P6SM BKN150

Runways

03/21 7000 ft / 150 ft
13/31 12802 ft / 200 ft

Outbound flights

Callsign Flying to Pilot ATD/STD ETA Aircraft

Inbound flights

Callsign Flying from Pilot ATD ETA Aircraft